CLIO2: Washita River Nr Clinton, OK

Data processed at Mon May 25 23:42:28 2015 Central Daylight Time


All information presented herein is the property of the government of the United States of America and may be revised or deleted at any time without prior notice.
Dissemination of this information without the expressed written consent of the Public Affairs Office, Tulsa District U.S. Army Corps of Engineers is strictly prohibited.
These data are gathered electronically and, as presented, have not undergone any form of quality control. These data are not guaranteed to be valid or correct.
Go to home page.
Go to station list.
Go to station map.

Upstream stations:

Downstream station: Previous Day
Next Day
Current Day

Display graphics.
Display DCP transmissions.


    
    SHEF ID:       CLIO2     Washita River Nr Clinton, OK
    STATION TYPE:  STREAM GAGE
    Regulation Limits:  Stage =   18.00, Flow =    2087
    
                   PRECIP     STAGE  RIV-FLOW   VOLTAGE
                   INCHES      FEET       CFS     VOLTS
                     GOES      GOES      GOES      GOES
       (Cen)
    05/25 01:00      0.00     24.25      6250     12.60
    05/25 02:00      0.00     24.12      5974     12.60
    05/25 03:00      0.00     24.01      5765     12.60
    05/25 04:00      0.00     23.91      5597     12.60
    05/25 05:00      0.00     23.79      5402     12.60
    05/25 06:00      0.00     23.68      5237     12.60
    05/25 07:00      0.00     23.57      5077     12.60
    05/25 08:00      0.00     23.49      4964     12.60
    05/25 09:00      0.00     23.39      4826     13.30
    05/25 10:00      0.00     23.29      4692     13.77
    05/25 11:00      0.00     23.20      4573     13.59
    05/25 12:00      0.00     23.13      4490     13.53
    05/25 13:00      0.00     23.06      4410     13.42
    05/25 14:00      0.00     22.93      4263     12.89
    05/25 15:00      0.04     22.89      4222     12.89
    05/25 16:00      0.01     22.80      4150     13.48
    05/25 17:00      0.00     22.70      4070     13.53
    05/25 18:00      0.00     22.62      4008     13.36
    05/25 19:00      0.00     22.52      3931     13.53
    05/25 20:00      0.00     22.43      3862     13.42
    05/25 21:00      0.00     22.32      3780     12.89
    05/25 22:00      0.00     22.23      3711     12.60
    05/25 23:00      0.00     22.15      3650     12.54
    05/26 00:00      ----      ----      ----      ----